Richmond International Airport
KRIC : now visible

Aeroporto :











RITROVATECI SU...

 
LOGIN :

Iscrizione | Disclaimer

   EN    FR    IT 

 









Sommario :    VFR   VFR Marginale   IFR   IFR Intensivo   IFR Molto Intensivo
Visibilità : 
Base nubi : 
>= 8 km
>= 3000ft
5 / 8 km
1000 / 3000 ft
1500m / 5 km
500 / 1000 ft
800 / 1500m
200 / 500 ft
< 800m
< 200 ft
Simboli :   Temporali  Nebbia  Neve Forte  Precipitazioni Forti  Vento > 20 kt






- Altitudine del aeroporto : 167 ft
- Codice IATA : RIC


KRIC - Richmond International

ULTIMO METAR :
  • 250754Z 00000KT 10SM CLR 14/13 A3027 RMK AO2 SLP255 T01440133

METARs OBSOLETI :
  • 250654Z 00000KT 10SM CLR 14/13 A3028 RMK AO2 SLP256 T01440133

TAF KRIC
Valido dal 25 a 06 ore il 26 a 06 ore UTC


250530Z 2506/2606 VRB03KT P6SM SKC
FM251000 10004KT P6SM SCT080
FM251400 12005KT P6SM SCT040 BKN080
FM251900 14007KT P6SM VCSH BKN035
FM260100 16004KT P6SM BKN090
FIR KZDC / America del Nord



MetMap, La meteo Aeronautica in un colpo d'occhio ! - Copyright ORBIFLY Dicembre 2007 - Disclaimer

ORBIFLY MET'MAP TEAM :

Programmazione e sviluppo : Alexandra Zaïnal
Concezione : Baudouin d'Aumeries
Aiuto per la programmazione : Marc-Olivier Méhu
Supporto tecnico e logistico : Manuel Goepfert
Aiuto per la traduzione : Arnaldo La Scala

Contatto : metmap@orbifly.com




FONTI E CREDITI :

   NOAA       Earth
Advisory